sensor_id;sensor_type;location;lat;lon;timestamp;P1;durP1;ratioP1;P2;durP2;ratioP2
28022;SDS011;67403;50.104;8.758;2023-02-03T00:01:53;4.40;;;2.20;;
28022;SDS011;67403;50.104;8.758;2023-02-03T00:04:21;3.05;;;2.33;;
28022;SDS011;67403;50.104;8.758;2023-02-03T00:06:48;4.30;;;2.10;;
28022;SDS011;67403;50.104;8.758;2023-02-03T00:09:16;3.13;;;2.05;;
28022;SDS011;67403;50.104;8.758;2023-02-03T00:11:43;2.78;;;2.28;;
28022;SDS011;67403;50.104;8.758;2023-02-03T00:14:10;3.38;;;2.38;;
28022;SDS011;67403;50.104;8.758;2023-02-03T00:16:37;6.38;;;3.25;;
28022;SDS011;67403;50.104;8.758;2023-02-03T00:19:04;6.63;;;2.50;;
28022;SDS011;67403;50.104;8.758;2023-02-03T00:21:32;5.28;;;2.83;;
28022;SDS011;67403;50.104;8.758;2023-02-03T00:23:59;6.00;;;2.05;;
28022;SDS011;67403;50.104;8.758;2023-02-03T00:26:26;4.05;;;2.67;;
28022;SDS011;67403;50.104;8.758;2023-02-03T00:28:53;6.32;;;3.03;;
28022;SDS011;67403;50.104;8.758;2023-02-03T00:31:21;5.43;;;2.33;;
28022;SDS011;67403;50.104;8.758;2023-02-03T00:33:52;9.55;;;2.90;;
28022;SDS011;67403;50.104;8.758;2023-02-03T00:36:20;3.30;;;2.30;;
28022;SDS011;67403;50.104;8.758;2023-02-03T00:38:48;5.00;;;2.25;;
28022;SDS011;67403;50.104;8.758;2023-02-03T00:41:16;5.00;;;2.30;;
28022;SDS011;67403;50.104;8.758;2023-02-03T00:43:43;3.55;;;1.98;;
28022;SDS011;67403;50.104;8.758;2023-02-03T00:46:10;4.35;;;2.40;;
28022;SDS011;67403;50.104;8.758;2023-02-03T00:48:37;6.70;;;2.45;;
28022;SDS011;67403;50.104;8.758;2023-02-03T00:51:04;6.07;;;2.05;;
28022;SDS011;67403;50.104;8.758;2023-02-03T00:53:31;3.35;;;2.17;;
28022;SDS011;67403;50.104;8.758;2023-02-03T00:56:00;9.80;;;2.33;;
28022;SDS011;67403;50.104;8.758;2023-02-03T00:58:26;9.60;;;2.63;;
28022;SDS011;67403;50.104;8.758;2023-02-03T01:00:53;2.70;;;2.03;;
28022;SDS011;67403;50.104;8.758;2023-02-03T01:03:21;4.97;;;2.50;;
28022;SDS011;67403;50.104;8.758;2023-02-03T01:05:48;3.42;;;2.13;;
28022;SDS011;67403;50.104;8.758;2023-02-03T01:08:15;4.05;;;1.92;;
28022;SDS011;67403;50.104;8.758;2023-02-03T01:10:42;6.68;;;2.28;;
28022;SDS011;67403;50.104;8.758;2023-02-03T01:13:10;6.65;;;2.15;;
28022;SDS011;67403;50.104;8.758;2023-02-03T01:15:37;3.20;;;1.70;;
28022;SDS011;67403;50.104;8.758;2023-02-03T01:18:10;4.38;;;1.80;;
28022;SDS011;67403;50.104;8.758;2023-02-03T01:20:37;3.70;;;2.08;;
28022;SDS011;67403;50.104;8.758;2023-02-03T01:23:04;3.50;;;1.95;;
28022;SDS011;67403;50.104;8.758;2023-02-03T01:25:30;6.13;;;1.95;;
28022;SDS011;67403;50.104;8.758;2023-02-03T01:27:59;6.55;;;2.15;;
28022;SDS011;67403;50.104;8.758;2023-02-03T01:30:28;3.30;;;1.83;;
28022;SDS011;67403;50.104;8.758;2023-02-03T01:32:54;3.30;;;1.95;;
28022;SDS011;67403;50.104;8.758;2023-02-03T01:35:21;3.70;;;1.45;;
28022;SDS011;67403;50.104;8.758;2023-02-03T01:37:48;4.28;;;1.88;;
28022;SDS011;67403;50.104;8.758;2023-02-03T01:40:15;5.80;;;1.90;;
28022;SDS011;67403;50.104;8.758;2023-02-03T01:42:42;4.38;;;1.77;;
28022;SDS011;67403;50.104;8.758;2023-02-03T01:45:10;3.55;;;1.60;;
28022;SDS011;67403;50.104;8.758;2023-02-03T01:47:39;4.22;;;1.60;;
28022;SDS011;67403;50.104;8.758;2023-02-03T01:50:12;2.30;;;1.58;;
28022;SDS011;67403;50.104;8.758;2023-02-03T01:52:42;4.68;;;1.80;;
28022;SDS011;67403;50.104;8.758;2023-02-03T01:55:13;2.45;;;1.55;;
28022;SDS011;67403;50.104;8.758;2023-02-03T01:57:45;1.90;;;1.67;;
28022;SDS011;67403;50.104;8.758;2023-02-03T02:00:16;3.90;;;1.48;;
28022;SDS011;67403;50.104;8.758;2023-02-03T02:02:45;4.65;;;2.10;;
28022;SDS011;67403;50.104;8.758;2023-02-03T02:05:16;2.47;;;1.60;;
28022;SDS011;67403;50.104;8.758;2023-02-03T02:07:48;5.43;;;2.55;;
28022;SDS011;67403;50.104;8.758;2023-02-03T02:10:16;4.35;;;1.83;;
28022;SDS011;67403;50.104;8.758;2023-02-03T02:12:43;2.67;;;1.42;;
28022;SDS011;67403;50.104;8.758;2023-02-03T02:15:10;2.58;;;1.77;;
28022;SDS011;67403;50.104;8.758;2023-02-03T02:17:42;5.72;;;1.48;;
28022;SDS011;67403;50.104;8.758;2023-02-03T02:20:32;3.75;;;1.45;;
28022;SDS011;67403;50.104;8.758;2023-02-03T02:23:33;1.15;;;0.90;;
28022;SDS011;67403;50.104;8.758;2023-02-03T02:26:22;5.63;;;1.55;;
28022;SDS011;67403;50.104;8.758;2023-02-03T02:32:48;1.20;;;1.10;;
28022;SDS011;67403;50.104;8.758;2023-02-03T02:35:29;2.50;;;1.30;;
28022;SDS011;67403;50.104;8.758;2023-02-03T02:38:03;1.17;;;1.05;;
28022;SDS011;67403;50.104;8.758;2023-02-03T02:40:47;1.20;;;1.10;;
28022;SDS011;67403;50.104;8.758;2023-02-03T02:43:18;1.88;;;1.10;;
28022;SDS011;67403;50.104;8.758;2023-02-03T02:45:48;1.85;;;1.27;;
28022;SDS011;67403;50.104;8.758;2023-02-03T02:48:21;2.50;;;1.13;;
28022;SDS011;67403;50.104;8.758;2023-02-03T02:50:54;3.67;;;1.13;;
28022;SDS011;67403;50.104;8.758;2023-02-03T02:53:23;2.03;;;1.27;;
28022;SDS011;67403;50.104;8.758;2023-02-03T02:58:21;2.50;;;1.30;;
28022;SDS011;67403;50.104;8.758;2023-02-03T03:00:49;1.20;;;1.10;;
28022;SDS011;67403;50.104;8.758;2023-02-03T03:03:17;5.63;;;1.45;;
28022;SDS011;67403;50.104;8.758;2023-02-03T03:05:48;3.10;;;1.83;;
28022;SDS011;67403;50.104;8.758;2023-02-03T03:08:19;3.38;;;1.35;;
28022;SDS011;67403;50.104;8.758;2023-02-03T03:10:49;2.20;;;1.27;;
28022;SDS011;67403;50.104;8.758;2023-02-03T03:13:19;3.60;;;1.27;;
28022;SDS011;67403;50.104;8.758;2023-02-03T03:15:49;5.22;;;1.45;;
28022;SDS011;67403;50.104;8.758;2023-02-03T03:18:19;1.60;;;1.30;;
28022;SDS011;67403;50.104;8.758;2023-02-03T03:23:19;2.92;;;1.27;;
28022;SDS011;67403;50.104;8.758;2023-02-03T03:25:51;1.00;;;0.90;;
28022;SDS011;67403;50.104;8.758;2023-02-03T03:28:25;1.83;;;1.10;;
28022;SDS011;67403;50.104;8.758;2023-02-03T03:30:58;1.50;;;1.02;;
28022;SDS011;67403;50.104;8.758;2023-02-03T03:33:25;2.38;;;1.13;;
28022;SDS011;67403;50.104;8.758;2023-02-03T03:35:54;1.10;;;0.93;;
28022;SDS011;67403;50.104;8.758;2023-02-03T03:38:27;3.28;;;0.90;;
28022;SDS011;67403;50.104;8.758;2023-02-03T03:41:02;2.58;;;1.17;;
28022;SDS011;67403;50.104;8.758;2023-02-03T03:43:34;3.08;;;1.00;;
28022;SDS011;67403;50.104;8.758;2023-02-03T03:46:07;1.88;;;1.13;;
28022;SDS011;67403;50.104;8.758;2023-02-03T03:48:39;3.45;;;1.08;;
28022;SDS011;67403;50.104;8.758;2023-02-03T03:51:14;1.67;;;1.30;;
28022;SDS011;67403;50.104;8.758;2023-02-03T03:53:44;1.20;;;0.82;;
28022;SDS011;67403;50.104;8.758;2023-02-03T03:56:14;3.30;;;1.10;;
28022;SDS011;67403;50.104;8.758;2023-02-03T03:58:46;1.25;;;0.90;;
28022;SDS011;67403;50.104;8.758;2023-02-03T04:01:17;1.45;;;1.20;;
28022;SDS011;67403;50.104;8.758;2023-02-03T04:03:47;3.25;;;1.05;;
28022;SDS011;67403;50.104;8.758;2023-02-03T04:06:16;1.83;;;1.20;;
28022;SDS011;67403;50.104;8.758;2023-02-03T04:08:43;1.52;;;0.90;;
28022;SDS011;67403;50.104;8.758;2023-02-03T04:11:10;3.15;;;1.08;;
28022;SDS011;67403;50.104;8.758;2023-02-03T04:14:17;1.20;;;1.10;;
28022;SDS011;67403;50.104;8.758;2023-02-03T04:17:04;0.70;;;0.70;;
28022;SDS011;67403;50.104;8.758;2023-02-03T04:19:51;3.22;;;1.20;;
28022;SDS011;67403;50.104;8.758;2023-02-03T04:22:39;1.08;;;0.90;;
28022;SDS011;67403;50.104;8.758;2023-02-03T04:25:26;1.27;;;1.17;;
28022;SDS011;67403;50.104;8.758;2023-02-03T04:28:13;1.92;;;1.30;;
28022;SDS011;67403;50.104;8.758;2023-02-03T04:30:40;1.50;;;1.13;;
28022;SDS011;67403;50.104;8.758;2023-02-03T04:33:06;1.35;;;1.00;;
28022;SDS011;67403;50.104;8.758;2023-02-03T04:35:33;1.33;;;0.80;;
28022;SDS011;67403;50.104;8.758;2023-02-03T04:38:01;1.27;;;1.00;;
28022;SDS011;67403;50.104;8.758;2023-02-03T04:40:28;0.95;;;0.90;;
28022;SDS011;67403;50.104;8.758;2023-02-03T04:42:55;1.75;;;1.20;;
28022;SDS011;67403;50.104;8.758;2023-02-03T04:45:22;2.03;;;1.13;;
28022;SDS011;67403;50.104;8.758;2023-02-03T04:47:50;1.67;;;1.17;;
28022;SDS011;67403;50.104;8.758;2023-02-03T04:50:17;1.23;;;1.08;;
28022;SDS011;67403;50.104;8.758;2023-02-03T04:52:44;1.23;;;0.90;;
28022;SDS011;67403;50.104;8.758;2023-02-03T04:55:12;1.05;;;0.80;;
28022;SDS011;67403;50.104;8.758;2023-02-03T04:57:39;3.85;;;2.30;;
28022;SDS011;67403;50.104;8.758;2023-02-03T05:00:06;1.55;;;0.82;;
28022;SDS011;67403;50.104;8.758;2023-02-03T05:02:34;2.00;;;1.23;;
28022;SDS011;67403;50.104;8.758;2023-02-03T05:05:01;2.75;;;1.30;;
28022;SDS011;67403;50.104;8.758;2023-02-03T05:07:28;1.90;;;1.10;;
28022;SDS011;67403;50.104;8.758;2023-02-03T05:09:55;1.00;;;0.90;;
28022;SDS011;67403;50.104;8.758;2023-02-03T05:12:23;1.55;;;1.05;;
28022;SDS011;67403;50.104;8.758;2023-02-03T05:14:50;1.30;;;1.20;;
28022;SDS011;67403;50.104;8.758;2023-02-03T05:17:17;1.30;;;1.10;;
28022;SDS011;67403;50.104;8.758;2023-02-03T05:19:44;1.48;;;1.10;;
28022;SDS011;67403;50.104;8.758;2023-02-03T05:22:11;1.83;;;1.48;;
28022;SDS011;67403;50.104;8.758;2023-02-03T05:24:37;1.38;;;1.08;;
28022;SDS011;67403;50.104;8.758;2023-02-03T05:27:04;1.30;;;1.20;;
28022;SDS011;67403;50.104;8.758;2023-02-03T05:29:33;1.33;;;0.90;;
28022;SDS011;67403;50.104;8.758;2023-02-03T05:31:59;3.92;;;1.42;;
28022;SDS011;67403;50.104;8.758;2023-02-03T05:34:26;1.65;;;1.20;;
28022;SDS011;67403;50.104;8.758;2023-02-03T05:36:53;3.55;;;1.40;;
28022;SDS011;67403;50.104;8.758;2023-02-03T05:39:20;1.40;;;1.00;;
28022;SDS011;67403;50.104;8.758;2023-02-03T05:41:47;2.65;;;0.90;;
28022;SDS011;67403;50.104;8.758;2023-02-03T05:44:19;2.58;;;1.55;;
28022;SDS011;67403;50.104;8.758;2023-02-03T05:46:47;1.77;;;1.30;;
28022;SDS011;67403;50.104;8.758;2023-02-03T05:49:15;1.85;;;1.13;;
28022;SDS011;67403;50.104;8.758;2023-02-03T05:51:42;3.30;;;2.00;;
28022;SDS011;67403;50.104;8.758;2023-02-03T05:54:09;1.88;;;1.35;;
28022;SDS011;67403;50.104;8.758;2023-02-03T05:56:36;1.15;;;1.05;;
28022;SDS011;67403;50.104;8.758;2023-02-03T05:59:03;1.63;;;1.30;;
28022;SDS011;67403;50.104;8.758;2023-02-03T06:01:30;2.63;;;1.35;;
28022;SDS011;67403;50.104;8.758;2023-02-03T06:03:59;2.42;;;1.50;;
28022;SDS011;67403;50.104;8.758;2023-02-03T06:06:27;5.70;;;1.25;;
28022;SDS011;67403;50.104;8.758;2023-02-03T06:08:58;3.10;;;1.95;;
28022;SDS011;67403;50.104;8.758;2023-02-03T06:11:25;8.90;;;1.27;;
28022;SDS011;67403;50.104;8.758;2023-02-03T06:13:52;3.05;;;1.20;;
28022;SDS011;67403;50.104;8.758;2023-02-03T06:16:20;2.15;;;1.48;;
28022;SDS011;67403;50.104;8.758;2023-02-03T06:18:49;1.30;;;1.20;;
28022;SDS011;67403;50.104;8.758;2023-02-03T06:21:17;1.35;;;1.00;;
28022;SDS011;67403;50.104;8.758;2023-02-03T06:23:45;1.77;;;1.42;;
28022;SDS011;67403;50.104;8.758;2023-02-03T06:26:12;1.38;;;1.20;;
28022;SDS011;67403;50.104;8.758;2023-02-03T06:28:39;1.90;;;1.30;;
28022;SDS011;67403;50.104;8.758;2023-02-03T06:31:06;1.92;;;1.27;;
28022;SDS011;67403;50.104;8.758;2023-02-03T06:33:33;2.47;;;1.17;;
28022;SDS011;67403;50.104;8.758;2023-02-03T06:36:00;4.60;;;1.50;;
28022;SDS011;67403;50.104;8.758;2023-02-03T06:38:28;1.48;;;1.35;;
28022;SDS011;67403;50.104;8.758;2023-02-03T06:40:55;1.33;;;1.10;;
28022;SDS011;67403;50.104;8.758;2023-02-03T06:43:22;1.38;;;1.25;;
28022;SDS011;67403;50.104;8.758;2023-02-03T06:45:49;4.20;;;1.48;;
28022;SDS011;67403;50.104;8.758;2023-02-03T06:48:16;1.35;;;1.20;;
28022;SDS011;67403;50.104;8.758;2023-02-03T06:50:43;2.00;;;1.52;;
28022;SDS011;67403;50.104;8.758;2023-02-03T06:53:10;1.58;;;1.23;;
28022;SDS011;67403;50.104;8.758;2023-02-03T06:55:38;4.20;;;1.27;;
28022;SDS011;67403;50.104;8.758;2023-02-03T06:58:05;3.70;;;1.80;;
28022;SDS011;67403;50.104;8.758;2023-02-03T07:00:32;2.45;;;1.80;;
28022;SDS011;67403;50.104;8.758;2023-02-03T07:02:59;4.43;;;1.80;;
28022;SDS011;67403;50.104;8.758;2023-02-03T07:05:26;2.72;;;1.55;;
28022;SDS011;67403;50.104;8.758;2023-02-03T07:07:53;1.63;;;1.38;;
28022;SDS011;67403;50.104;8.758;2023-02-03T07:10:20;2.65;;;1.40;;
28022;SDS011;67403;50.104;8.758;2023-02-03T07:12:48;1.50;;;1.40;;
28022;SDS011;67403;50.104;8.758;2023-02-03T07:15:16;1.42;;;1.20;;
28022;SDS011;67403;50.104;8.758;2023-02-03T07:17:43;1.92;;;1.25;;
28022;SDS011;67403;50.104;8.758;2023-02-03T07:20:19;4.88;;;1.90;;
28022;SDS011;67403;50.104;8.758;2023-02-03T07:22:50;3.47;;;1.35;;
28022;SDS011;67403;50.104;8.758;2023-02-03T07:25:17;2.67;;;1.50;;
28022;SDS011;67403;50.104;8.758;2023-02-03T07:27:44;1.88;;;1.30;;
28022;SDS011;67403;50.104;8.758;2023-02-03T07:30:13;2.55;;;1.63;;
28022;SDS011;67403;50.104;8.758;2023-02-03T07:32:40;5.30;;;1.75;;
28022;SDS011;67403;50.104;8.758;2023-02-03T07:35:07;1.88;;;1.08;;
28022;SDS011;67403;50.104;8.758;2023-02-03T07:37:33;3.45;;;1.77;;
28022;SDS011;67403;50.104;8.758;2023-02-03T07:40:00;1.60;;;1.23;;
28022;SDS011;67403;50.104;8.758;2023-02-03T07:42:27;3.42;;;1.58;;
28022;SDS011;67403;50.104;8.758;2023-02-03T07:44:54;2.42;;;1.63;;
28022;SDS011;67403;50.104;8.758;2023-02-03T07:47:22;3.42;;;1.23;;
28022;SDS011;67403;50.104;8.758;2023-02-03T07:49:49;3.08;;;1.25;;
28022;SDS011;67403;50.104;8.758;2023-02-03T07:52:16;2.30;;;1.40;;
28022;SDS011;67403;50.104;8.758;2023-02-03T07:54:43;2.33;;;1.20;;
28022;SDS011;67403;50.104;8.758;2023-02-03T07:57:10;1.40;;;1.20;;
28022;SDS011;67403;50.104;8.758;2023-02-03T07:59:37;1.38;;;1.00;;
28022;SDS011;67403;50.104;8.758;2023-02-03T08:02:03;1.25;;;1.13;;
28022;SDS011;67403;50.104;8.758;2023-02-03T08:04:32;2.55;;;1.20;;
28022;SDS011;67403;50.104;8.758;2023-02-03T08:06:59;1.02;;;0.90;;
28022;SDS011;67403;50.104;8.758;2023-02-03T08:09:25;1.30;;;1.20;;
28022;SDS011;67403;50.104;8.758;2023-02-03T08:11:52;3.03;;;1.48;;
28022;SDS011;67403;50.104;8.758;2023-02-03T08:14:19;3.17;;;1.05;;
28022;SDS011;67403;50.104;8.758;2023-02-03T08:16:46;3.55;;;1.63;;
28022;SDS011;67403;50.104;8.758;2023-02-03T08:19:13;2.78;;;1.23;;
28022;SDS011;67403;50.104;8.758;2023-02-03T08:21:41;2.70;;;1.13;;
28022;SDS011;67403;50.104;8.758;2023-02-03T08:24:08;2.17;;;1.25;;
28022;SDS011;67403;50.104;8.758;2023-02-03T08:26:35;1.83;;;1.20;;
28022;SDS011;67403;50.104;8.758;2023-02-03T08:29:03;1.55;;;1.10;;
28022;SDS011;67403;50.104;8.758;2023-02-03T08:31:30;1.00;;;0.90;;
28022;SDS011;67403;50.104;8.758;2023-02-03T08:33:57;1.92;;;1.20;;
28022;SDS011;67403;50.104;8.758;2023-02-03T08:36:24;1.35;;;1.13;;
28022;SDS011;67403;50.104;8.758;2023-02-03T08:38:52;4.30;;;1.17;;
28022;SDS011;67403;50.104;8.758;2023-02-03T08:41:19;1.63;;;1.20;;
28022;SDS011;67403;50.104;8.758;2023-02-03T08:43:46;2.40;;;1.10;;
28022;SDS011;67403;50.104;8.758;2023-02-03T08:46:13;1.55;;;1.25;;
28022;SDS011;67403;50.104;8.758;2023-02-03T08:48:40;3.00;;;1.50;;
28022;SDS011;67403;50.104;8.758;2023-02-03T08:51:10;1.60;;;1.42;;
28022;SDS011;67403;50.104;8.758;2023-02-03T08:53:39;1.58;;;1.13;;
28022;SDS011;67403;50.104;8.758;2023-02-03T08:56:08;1.65;;;1.33;;
28022;SDS011;67403;50.104;8.758;2023-02-03T08:58:37;2.17;;;1.08;;
28022;SDS011;67403;50.104;8.758;2023-02-03T09:01:05;2.80;;;0.95;;
28022;SDS011;67403;50.104;8.758;2023-02-03T09:03:33;1.58;;;1.13;;
28022;SDS011;67403;50.104;8.758;2023-02-03T09:05:59;1.48;;;1.05;;
28022;SDS011;67403;50.104;8.758;2023-02-03T09:08:26;2.83;;;1.00;;
28022;SDS011;67403;50.104;8.758;2023-02-03T09:10:53;3.25;;;1.13;;
28022;SDS011;67403;50.104;8.758;2023-02-03T09:13:22;0.80;;;0.80;;
28022;SDS011;67403;50.104;8.758;2023-02-03T09:15:49;2.47;;;1.10;;
28022;SDS011;67403;50.104;8.758;2023-02-03T09:18:16;2.65;;;1.10;;
28022;SDS011;67403;50.104;8.758;2023-02-03T09:20:43;1.00;;;0.85;;
28022;SDS011;67403;50.104;8.758;2023-02-03T09:23:09;0.75;;;0.75;;
28022;SDS011;67403;50.104;8.758;2023-02-03T09:25:36;1.23;;;0.90;;
28022;SDS011;67403;50.104;8.758;2023-02-03T09:28:03;8.07;;;1.45;;
28022;SDS011;67403;50.104;8.758;2023-02-03T09:30:31;1.17;;;0.98;;
28022;SDS011;67403;50.104;8.758;2023-02-03T09:32:58;2.97;;;1.13;;
28022;SDS011;67403;50.104;8.758;2023-02-03T09:35:25;3.47;;;1.20;;
28022;SDS011;67403;50.104;8.758;2023-02-03T09:37:54;2.58;;;1.13;;
28022;SDS011;67403;50.104;8.758;2023-02-03T09:40:22;5.15;;;1.45;;
28022;SDS011;67403;50.104;8.758;2023-02-03T09:42:54;3.75;;;1.17;;
28022;SDS011;67403;50.104;8.758;2023-02-03T09:45:32;2.83;;;1.20;;
28022;SDS011;67403;50.104;8.758;2023-02-03T09:47:59;2.47;;;0.85;;
28022;SDS011;67403;50.104;8.758;2023-02-03T09:50:32;1.05;;;0.93;;
28022;SDS011;67403;50.104;8.758;2023-02-03T09:53:02;2.47;;;1.00;;
28022;SDS011;67403;50.104;8.758;2023-02-03T09:55:34;2.15;;;1.08;;
28022;SDS011;67403;50.104;8.758;2023-02-03T09:58:05;1.40;;;1.20;;
28022;SDS011;67403;50.104;8.758;2023-02-03T10:00:38;1.27;;;0.85;;
28022;SDS011;67403;50.104;8.758;2023-02-03T10:03:10;3.03;;;0.95;;
28022;SDS011;67403;50.104;8.758;2023-02-03T10:05:51;2.53;;;1.00;;
28022;SDS011;67403;50.104;8.758;2023-02-03T10:08:35;1.58;;;1.00;;
28022;SDS011;67403;50.104;8.758;2023-02-03T10:11:20;4.45;;;1.20;;
28022;SDS011;67403;50.104;8.758;2023-02-03T10:13:57;4.18;;;1.27;;
28022;SDS011;67403;50.104;8.758;2023-02-03T10:16:45;1.08;;;0.98;;
28022;SDS011;67403;50.104;8.758;2023-02-03T10:19:24;6.07;;;1.15;;
28022;SDS011;67403;50.104;8.758;2023-02-03T10:21:59;0.80;;;0.80;;
28022;SDS011;67403;50.104;8.758;2023-02-03T10:24:31;1.23;;;0.80;;
28022;SDS011;67403;50.104;8.758;2023-02-03T10:27:05;1.15;;;1.00;;
28022;SDS011;67403;50.104;8.758;2023-02-03T10:29:36;3.38;;;0.93;;
28022;SDS011;67403;50.104;8.758;2023-02-03T10:32:08;4.50;;;1.00;;
28022;SDS011;67403;50.104;8.758;2023-02-03T10:34:36;1.77;;;0.60;;
28022;SDS011;67403;50.104;8.758;2023-02-03T10:37:05;1.25;;;1.00;;
28022;SDS011;67403;50.104;8.758;2023-02-03T10:39:44;1.85;;;0.75;;
28022;SDS011;67403;50.104;8.758;2023-02-03T10:42:12;1.80;;;0.93;;
28022;SDS011;67403;50.104;8.758;2023-02-03T10:44:41;2.20;;;0.80;;
28022;SDS011;67403;50.104;8.758;2023-02-03T10:50:03;3.28;;;1.10;;
28022;SDS011;67403;50.104;8.758;2023-02-03T10:52:33;2.22;;;1.55;;
28022;SDS011;67403;50.104;8.758;2023-02-03T10:55:03;1.70;;;1.00;;
28022;SDS011;67403;50.104;8.758;2023-02-03T10:57:33;1.35;;;1.02;;
28022;SDS011;67403;50.104;8.758;2023-02-03T11:00:07;5.32;;;1.20;;
28022;SDS011;67403;50.104;8.758;2023-02-03T11:02:54;1.55;;;0.98;;
28022;SDS011;67403;50.104;8.758;2023-02-03T11:05:24;2.17;;;1.05;;
28022;SDS011;67403;50.104;8.758;2023-02-03T11:07:51;1.20;;;0.95;;
28022;SDS011;67403;50.104;8.758;2023-02-03T11:10:24;1.02;;;0.70;;
28022;SDS011;67403;50.104;8.758;2023-02-03T11:13:11;3.03;;;1.05;;
28022;SDS011;67403;50.104;8.758;2023-02-03T11:15:43;2.78;;;1.10;;
28022;SDS011;67403;50.104;8.758;2023-02-03T11:18:26;0.98;;;0.60;;
28022;SDS011;67403;50.104;8.758;2023-02-03T11:21:04;1.65;;;0.88;;
28022;SDS011;67403;50.104;8.758;2023-02-03T11:23:33;2.72;;;0.93;;
28022;SDS011;67403;50.104;8.758;2023-02-03T11:26:08;1.67;;;0.82;;
28022;SDS011;67403;50.104;8.758;2023-02-03T11:28:36;1.05;;;0.80;;
28022;SDS011;67403;50.104;8.758;2023-02-03T11:31:14;1.20;;;0.85;;
28022;SDS011;67403;50.104;8.758;2023-02-03T11:33:47;1.92;;;1.05;;
28022;SDS011;67403;50.104;8.758;2023-02-03T11:36:16;1.95;;;1.00;;
28022;SDS011;67403;50.104;8.758;2023-02-03T11:38:44;1.30;;;0.90;;
28022;SDS011;67403;50.104;8.758;2023-02-03T11:41:14;2.88;;;1.20;;
28022;SDS011;67403;50.104;8.758;2023-02-03T11:43:43;3.40;;;1.10;;
28022;SDS011;67403;50.104;8.758;2023-02-03T11:46:10;0.90;;;0.82;;
28022;SDS011;67403;50.104;8.758;2023-02-03T11:48:40;1.02;;;0.80;;
28022;SDS011;67403;50.104;8.758;2023-02-03T11:51:17;1.10;;;0.80;;
28022;SDS011;67403;50.104;8.758;2023-02-03T11:53:56;1.55;;;0.90;;
28022;SDS011;67403;50.104;8.758;2023-02-03T11:56:30;3.63;;;1.30;;
28022;SDS011;67403;50.104;8.758;2023-02-03T11:59:17;1.25;;;0.90;;
28022;SDS011;67403;50.104;8.758;2023-02-03T12:02:06;4.40;;;0.80;;
28022;SDS011;67403;50.104;8.758;2023-02-03T12:04:59;3.53;;;1.00;;
28022;SDS011;67403;50.104;8.758;2023-02-03T12:07:48;2.08;;;1.02;;
28022;SDS011;67403;50.104;8.758;2023-02-03T12:10:29;2.35;;;1.10;;
28022;SDS011;67403;50.104;8.758;2023-02-03T12:13:06;0.98;;;0.95;;
28022;SDS011;67403;50.104;8.758;2023-02-03T12:15:51;1.90;;;0.90;;
28022;SDS011;67403;50.104;8.758;2023-02-03T12:18:44;2.65;;;0.80;;
28022;SDS011;67403;50.104;8.758;2023-02-03T12:21:34;0.80;;;0.80;;
28022;SDS011;67403;50.104;8.758;2023-02-03T12:24:12;3.22;;;0.90;;
28022;SDS011;67403;50.104;8.758;2023-02-03T12:26:49;1.58;;;0.77;;
28022;SDS011;67403;50.104;8.758;2023-02-03T12:29:26;1.98;;;0.93;;
28022;SDS011;67403;50.104;8.758;2023-02-03T12:32:01;2.05;;;1.00;;
28022;SDS011;67403;50.104;8.758;2023-02-03T12:34:32;1.40;;;0.98;;
28022;SDS011;67403;50.104;8.758;2023-02-03T12:37:05;1.10;;;0.90;;
28022;SDS011;67403;50.104;8.758;2023-02-03T12:39:36;4.03;;;1.15;;
28022;SDS011;67403;50.104;8.758;2023-02-03T12:42:10;2.00;;;1.30;;
28022;SDS011;67403;50.104;8.758;2023-02-03T12:44:42;1.67;;;1.45;;
28022;SDS011;67403;50.104;8.758;2023-02-03T12:47:13;1.73;;;0.98;;
28022;SDS011;67403;50.104;8.758;2023-02-03T12:49:49;2.65;;;1.00;;
28022;SDS011;67403;50.104;8.758;2023-02-03T12:52:22;1.48;;;1.00;;
28022;SDS011;67403;50.104;8.758;2023-02-03T12:54:55;1.27;;;0.98;;
28022;SDS011;67403;50.104;8.758;2023-02-03T12:57:32;1.50;;;1.00;;
28022;SDS011;67403;50.104;8.758;2023-02-03T13:00:04;4.60;;;0.90;;
28022;SDS011;67403;50.104;8.758;2023-02-03T13:02:46;1.17;;;0.90;;
28022;SDS011;67403;50.104;8.758;2023-02-03T13:05:23;1.15;;;0.93;;
28022;SDS011;67403;50.104;8.758;2023-02-03T13:07:58;0.70;;;0.70;;
28022;SDS011;67403;50.104;8.758;2023-02-03T13:10:34;1.40;;;1.00;;
28022;SDS011;67403;50.104;8.758;2023-02-03T13:13:08;0.75;;;0.75;;
28022;SDS011;67403;50.104;8.758;2023-02-03T13:15:42;0.85;;;0.82;;
28022;SDS011;67403;50.104;8.758;2023-02-03T13:18:13;1.83;;;1.10;;
28022;SDS011;67403;50.104;8.758;2023-02-03T13:20:46;1.90;;;1.00;;
28022;SDS011;67403;50.104;8.758;2023-02-03T13:23:14;5.82;;;1.17;;
28022;SDS011;67403;50.104;8.758;2023-02-03T13:25:45;1.02;;;0.90;;
28022;SDS011;67403;50.104;8.758;2023-02-03T13:28:27;2.25;;;0.80;;
28022;SDS011;67403;50.104;8.758;2023-02-03T13:31:07;1.88;;;1.23;;
28022;SDS011;67403;50.104;8.758;2023-02-03T13:36:33;0.85;;;0.77;;
28022;SDS011;67403;50.104;8.758;2023-02-03T13:39:23;2.55;;;1.10;;
28022;SDS011;67403;50.104;8.758;2023-02-03T13:42:07;1.38;;;0.80;;
28022;SDS011;67403;50.104;8.758;2023-02-03T13:44:45;2.38;;;0.80;;
28022;SDS011;67403;50.104;8.758;2023-02-03T13:47:16;1.65;;;0.90;;
28022;SDS011;67403;50.104;8.758;2023-02-03T13:49:48;0.77;;;0.77;;
28022;SDS011;67403;50.104;8.758;2023-02-03T13:52:27;1.60;;;0.80;;
28022;SDS011;67403;50.104;8.758;2023-02-03T13:55:00;0.70;;;0.70;;
28022;SDS011;67403;50.104;8.758;2023-02-03T13:57:30;3.83;;;1.00;;
28022;SDS011;67403;50.104;8.758;2023-02-03T14:00:00;1.92;;;1.10;;
28022;SDS011;67403;50.104;8.758;2023-02-03T14:02:37;1.52;;;0.60;;
28022;SDS011;67403;50.104;8.758;2023-02-03T14:05:08;1.83;;;0.90;;
28022;SDS011;67403;50.104;8.758;2023-02-03T14:11:38;1.35;;;1.00;;
28022;SDS011;67403;50.104;8.758;2023-02-03T14:23:07;0.90;;;0.80;;
28022;SDS011;67403;50.104;8.758;2023-02-03T14:25:39;1.65;;;1.20;;
28022;SDS011;67403;50.104;8.758;2023-02-03T14:28:12;2.97;;;1.55;;
28022;SDS011;67403;50.104;8.758;2023-02-03T14:33:44;0.98;;;0.93;;
28022;SDS011;67403;50.104;8.758;2023-02-03T14:36:30;0.95;;;0.85;;
28022;SDS011;67403;50.104;8.758;2023-02-03T14:39:01;1.27;;;0.95;;
28022;SDS011;67403;50.104;8.758;2023-02-03T14:41:49;1.52;;;1.10;;
28022;SDS011;67403;50.104;8.758;2023-02-03T14:44:28;3.60;;;1.88;;
28022;SDS011;67403;50.104;8.758;2023-02-03T14:47:08;2.15;;;0.98;;
28022;SDS011;67403;50.104;8.758;2023-02-03T14:49:45;1.40;;;1.10;;
28022;SDS011;67403;50.104;8.758;2023-02-03T14:52:34;1.73;;;1.23;;
28022;SDS011;67403;50.104;8.758;2023-02-03T14:55:16;2.38;;;1.15;;
28022;SDS011;67403;50.104;8.758;2023-02-03T14:57:57;1.30;;;0.90;;
28022;SDS011;67403;50.104;8.758;2023-02-03T15:00:30;1.88;;;1.00;;
28022;SDS011;67403;50.104;8.758;2023-02-03T15:03:18;1.90;;;1.20;;
28022;SDS011;67403;50.104;8.758;2023-02-03T15:05:49;1.45;;;0.98;;
28022;SDS011;67403;50.104;8.758;2023-02-03T15:08:31;1.90;;;0.95;;
28022;SDS011;67403;50.104;8.758;2023-02-03T15:11:15;1.63;;;1.20;;
28022;SDS011;67403;50.104;8.758;2023-02-03T15:13:48;2.30;;;0.98;;
28022;SDS011;67403;50.104;8.758;2023-02-03T15:16:18;2.17;;;1.10;;
28022;SDS011;67403;50.104;8.758;2023-02-03T15:18:52;2.42;;;1.42;;
28022;SDS011;67403;50.104;8.758;2023-02-03T15:21:22;1.23;;;1.13;;
28022;SDS011;67403;50.104;8.758;2023-02-03T15:23:50;6.28;;;1.30;;
28022;SDS011;67403;50.104;8.758;2023-02-03T15:26:18;2.17;;;1.45;;
28022;SDS011;67403;50.104;8.758;2023-02-03T15:28:55;1.42;;;1.20;;
28022;SDS011;67403;50.104;8.758;2023-02-03T15:31:25;2.80;;;1.58;;
28022;SDS011;67403;50.104;8.758;2023-02-03T15:33:59;3.22;;;1.17;;
28022;SDS011;67403;50.104;8.758;2023-02-03T15:36:32;2.42;;;1.10;;
28022;SDS011;67403;50.104;8.758;2023-02-03T15:39:10;1.48;;;1.38;;
28022;SDS011;67403;50.104;8.758;2023-02-03T15:41:44;5.05;;;1.40;;
28022;SDS011;67403;50.104;8.758;2023-02-03T15:44:16;1.70;;;1.20;;